Bahama Spirit — YJRE4 — position and weather

sailwx.info

Track history (hours):
 
Tides and Currents Weather Stations Pressure Air Temp Water Temp Dewpoint Dewpoint Depression Visibility Wind Speed Wind Dir Waves Ship Positions

Bahama Spirit

Last reported at 2017-Nov-18 10:04 UTC. Time now 2017-Nov-22 07:34 UTC.
Position N 25°57' W 079°34'.

Length 187 m; draft 7.4 m.

Type: Cargo ship. MMSI: 576532000.

Date/timePositionNaut miles runAvg speedWind from/ knotsBaromVisibWave heightAir tempDewpointWater temp
2017-Nov-18 10:04N 25°57' W 079°34'112.2
2017-Nov-18 10:01N 25°56' W 079°35'612.4
2017-Nov-18 09:31N 25°51' W 079°38'612.5
2017-Nov-18 09:01N 25°45' W 079°42'612.4
2017-Nov-18 08:31N 25°40' W 079°45'612.4
2017-Nov-18 08:01N 25°34' W 079°48'612.4
2017-Nov-18 07:30N 25°29' W 079°52'712.5
2017-Nov-18 06:58N 25°23' W 079°55'198 5.2
2017-Nov-16 17:00N 27°41' W 082°34'510.2
2017-Nov-16 16:31N 27°45' W 082°31'5 9.7
2017-Nov-16 16:01N 27°48' W 082°27'510.5
2017-Nov-16 15:31N 27°54' W 082°26'1 2.3
2017-Nov-16 15:01N 27°55' W 082°27'0 0.0
2017-Nov-16 14:30N 27°55' W 082°27'0 0.0
2017-Nov-16 14:00N 27°55' W 082°27'0 0.0
2017-Nov-16 13:30N 27°55' W 082°27'0 0.0
2017-Nov-16 13:00N 27°55' W 082°27'0 0.0
2017-Nov-16 12:30N 27°55' W 082°27'0 0.0
2017-Nov-16 12:00N 27°55' W 082°27'0 0.0
2017-Nov-16 11:30N 27°55' W 082°27'0 0.0
2017-Nov-16 11:00N 27°55' W 082°27'0 0.0
2017-Nov-16 10:30N 27°55' W 082°27'0 0.0
2017-Nov-16 10:00N 27°55' W 082°27'0 0.0
2017-Nov-16 09:30N 27°55' W 082°27'0 0.0
2017-Nov-16 09:01N 27°55' W 082°27'0 0.0
2017-Nov-16 08:30N 27°55' W 082°27'0 0.0
2017-Nov-16 08:00N 27°55' W 082°27'0 0.0
2017-Nov-16 07:30N 27°55' W 082°27'0 0.0
2017-Nov-16 07:00N 27°55' W 082°27'0 0.0
2017-Nov-16 06:30N 27°55' W 082°27'0 0.0
2017-Nov-16 06:00N 27°55' W 082°27'0 0.0
2017-Nov-16 05:30N 27°55' W 082°27'0 0.0
2017-Nov-16 05:00N 27°55' W 082°27'0 0.0
2017-Nov-16 04:30N 27°55' W 082°27'0 0.0
2017-Nov-16 04:00N 27°55' W 082°27'0 0.0
2017-Nov-16 03:30N 27°55' W 082°27'0 0.0
2017-Nov-16 03:00N 27°55' W 082°27'0 0.0
2017-Nov-16 02:30N 27°55' W 082°27'0 0.0
2017-Nov-16 02:00N 27°55' W 082°27'0 0.0
2017-Nov-16 01:30N 27°55' W 082°27'0 0.0
2017-Nov-16 01:00N 27°55' W 082°27'0 0.0
2017-Nov-16 00:30N 27°55' W 082°27'0 0.0
2017-Nov-16 00:00N 27°55' W 082°27'0 0.0
2017-Nov-15 23:30N 27°55' W 082°27'0 0.0
2017-Nov-15 23:00N 27°55' W 082°27'0 0.0
2017-Nov-15 22:30N 27°55' W 082°27'0 0.0
2017-Nov-15 22:00N 27°55' W 082°27'0 0.0
2017-Nov-15 21:30N 27°55' W 082°27'0 0.0
2017-Nov-15 21:00N 27°55' W 082°27'0 0.1
2017-Nov-15 20:30N 27°55' W 082°27'0 0.1
2017-Nov-15 20:00N 27°55' W 082°27'1 1.2
2017-Nov-15 19:30N 27°54' W 082°26'1 2.8
2017-Nov-15 19:01N 27°53' W 082°26'4 7.8
2017-Nov-15 18:30N 27°49' W 082°27'5 9.3
2017-Nov-15 18:01N 27°46' W 082°31'  
Track history (hours):
 
Tides and Currents Weather Stations Pressure Air Temp Water Temp Dewpoint Dewpoint Depression Visibility Wind Speed Wind Dir Waves Ship Positions

Bahama Spirit

Last reported at 2017-Nov-18 10:04 UTC. Time now 2017-Nov-22 07:34 UTC.
Position N 25°57' W 079°34'.

Length 187 m; draft 7.4 m.

Type: Cargo ship. MMSI: 576532000.

Date/timePositionNaut miles runAvg speedWind from/ knotsBaromVisibWave heightAir tempDewpointWater temp
2017-Nov-18 10:04N 25°57' W 079°34'112.2
2017-Nov-18 10:01N 25°56' W 079°35'612.4
2017-Nov-18 09:31N 25°51' W 079°38'612.5
2017-Nov-18 09:01N 25°45' W 079°42'612.4
2017-Nov-18 08:31N 25°40' W 079°45'612.4
2017-Nov-18 08:01N 25°34' W 079°48'612.4
2017-Nov-18 07:30N 25°29' W 079°52'712.5
2017-Nov-18 06:58N 25°23' W 079°55'198 5.2
2017-Nov-16 17:00N 27°41' W 082°34'510.2
2017-Nov-16 16:31N 27°45' W 082°31'5 9.7
2017-Nov-16 16:01N 27°48' W 082°27'510.5
2017-Nov-16 15:31N 27°54' W 082°26'1 2.3
2017-Nov-16 15:01N 27°55' W 082°27'0 0.0
2017-Nov-16 14:30N 27°55' W 082°27'0 0.0
2017-Nov-16 14:00N 27°55' W 082°27'0 0.0
2017-Nov-16 13:30N 27°55' W 082°27'0 0.0
2017-Nov-16 13:00N 27°55' W 082°27'0 0.0
2017-Nov-16 12:30N 27°55' W 082°27'0 0.0
2017-Nov-16 12:00N 27°55' W 082°27'0 0.0
2017-Nov-16 11:30N 27°55' W 082°27'0 0.0
2017-Nov-16 11:00N 27°55' W 082°27'0 0.0
2017-Nov-16 10:30N 27°55' W 082°27'0 0.0
2017-Nov-16 10:00N 27°55' W 082°27'0 0.0
2017-Nov-16 09:30N 27°55' W 082°27'0 0.0
2017-Nov-16 09:01N 27°55' W 082°27'0 0.0
2017-Nov-16 08:30N 27°55' W 082°27'0 0.0
2017-Nov-16 08:00N 27°55' W 082°27'0 0.0
2017-Nov-16 07:30N 27°55' W 082°27'0 0.0
2017-Nov-16 07:00N 27°55' W 082°27'0 0.0
2017-Nov-16 06:30N 27°55' W 082°27'0 0.0
2017-Nov-16 06:00N 27°55' W 082°27'0 0.0
2017-Nov-16 05:30N 27°55' W 082°27'0 0.0
2017-Nov-16 05:00N 27°55' W 082°27'0 0.0
2017-Nov-16 04:30N 27°55' W 082°27'0 0.0
2017-Nov-16 04:00N 27°55' W 082°27'0 0.0
2017-Nov-16 03:30N 27°55' W 082°27'0 0.0
2017-Nov-16 03:00N 27°55' W 082°27'0 0.0
2017-Nov-16 02:30N 27°55' W 082°27'0 0.0
2017-Nov-16 02:00N 27°55' W 082°27'0 0.0
2017-Nov-16 01:30N 27°55' W 082°27'0 0.0
2017-Nov-16 01:00N 27°55' W 082°27'0 0.0
2017-Nov-16 00:30N 27°55' W 082°27'0 0.0
2017-Nov-16 00:00N 27°55' W 082°27'0 0.0
2017-Nov-15 23:30N 27°55' W 082°27'0 0.0
2017-Nov-15 23:00N 27°55' W 082°27'0 0.0
2017-Nov-15 22:30N 27°55' W 082°27'0 0.0
2017-Nov-15 22:00N 27°55' W 082°27'0 0.0
2017-Nov-15 21:30N 27°55' W 082°27'0 0.0
2017-Nov-15 21:00N 27°55' W 082°27'0 0.1
2017-Nov-15 20:30N 27°55' W 082°27'0 0.1
2017-Nov-15 20:00N 27°55' W 082°27'1 1.2
2017-Nov-15 19:30N 27°54' W 082°26'1 2.8
2017-Nov-15 19:01N 27°53' W 082°26'4 7.8
2017-Nov-15 18:30N 27°49' W 082°27'5 9.3
2017-Nov-15 18:01N 27°46' W 082°31'  

Dump ship's entire track history